createdAt,value
2022-11-14T00:00:35.201Z,4.65
2022-11-14T00:03:07.630Z,4.63
2022-11-14T00:05:45.554Z,4.46
2022-11-14T00:08:27.730Z,4.52
2022-11-14T00:10:58.249Z,4.43
2022-11-14T00:13:28.390Z,4.49
2022-11-14T00:15:58.708Z,4.42
2022-11-14T00:18:29.204Z,4.36
2022-11-14T00:20:59.711Z,4.27
2022-11-14T00:23:29.963Z,4.20
2022-11-14T00:26:00.131Z,4.29
2022-11-14T00:28:30.626Z,4.29
2022-11-14T00:31:00.992Z,4.31
2022-11-14T00:33:31.212Z,4.32
2022-11-14T00:36:01.522Z,4.31
2022-11-14T00:38:31.947Z,4.36
2022-11-14T00:41:02.285Z,4.40
2022-11-14T00:43:32.757Z,4.38
2022-11-14T00:46:02.937Z,4.38
2022-11-14T00:48:33.235Z,4.34
2022-11-14T00:51:03.633Z,4.27
2022-11-14T00:53:33.928Z,4.15
2022-11-14T00:56:05.411Z,4.11
2022-11-14T00:58:35.534Z,4.19
2022-11-14T01:01:06.147Z,4.15
2022-11-14T01:03:36.449Z,4.17
2022-11-14T01:06:11.546Z,4.08
2022-11-14T01:08:42.246Z,4.02
2022-11-14T01:11:20.192Z,3.93
2022-11-14T01:13:50.515Z,3.91
2022-11-14T01:16:20.302Z,3.84
2022-11-14T01:18:47.651Z,3.85
2022-11-14T01:21:17.044Z,3.92
2022-11-14T01:23:44.556Z,3.98
2022-11-14T01:26:15.393Z,3.87
2022-11-14T01:28:44.417Z,3.81
2022-11-14T01:31:21.269Z,3.75
2022-11-14T01:33:54.057Z,3.72
2022-11-14T01:36:24.024Z,3.69
2022-11-14T01:38:55.477Z,3.67
2022-11-14T01:41:25.634Z,3.73
2022-11-14T01:43:55.917Z,3.71
2022-11-14T01:46:38.680Z,3.76
2022-11-14T01:49:42.534Z,3.84
2022-11-14T01:52:27.528Z,3.95
2022-11-14T01:55:04.979Z,4.07
2022-11-14T01:57:48.220Z,4.15
2022-11-14T02:00:18.622Z,4.16
2022-11-14T02:02:49.367Z,4.27
2022-11-14T02:05:20.183Z,4.18
2022-11-14T02:07:52.951Z,4.36
2022-11-14T02:10:23.476Z,4.40
2022-11-14T02:12:54.076Z,4.40
2022-11-14T02:15:22.769Z,4.47
2022-11-14T02:17:52.212Z,4.60
2022-11-14T02:20:32.626Z,4.48
2022-11-14T02:23:02.237Z,4.47
2022-11-14T02:25:31.994Z,4.58
2022-11-14T02:28:02.834Z,4.53
2022-11-14T02:30:31.010Z,4.52
2022-11-14T02:33:15.018Z,4.50
2022-11-14T02:35:44.737Z,4.52
2022-11-14T02:38:14.574Z,4.64
2022-11-14T02:40:44.778Z,4.57
2022-11-14T02:43:14.516Z,4.70
2022-11-14T02:45:44.467Z,4.69
2022-11-14T02:48:14.320Z,4.72
2022-11-14T02:50:44.953Z,4.87
2022-11-14T02:53:15.122Z,4.78
2022-11-14T02:55:44.602Z,4.80
2022-11-14T02:58:14.559Z,4.90
2022-11-14T03:01:13.535Z,4.80
2022-11-14T03:03:33.496Z,4.73
2022-11-14T03:06:04.645Z,4.73
2022-11-14T03:08:33.371Z,4.84
2022-11-14T03:11:10.517Z,4.99
2022-11-14T03:13:40.691Z,4.84
2022-11-14T03:16:14.513Z,4.81
2022-11-14T03:18:42.339Z,4.76
2022-11-14T03:21:20.336Z,4.89
2022-11-14T03:23:49.917Z,4.77
2022-11-14T03:26:19.263Z,4.74
2022-11-14T03:28:49.306Z,4.62
2022-11-14T03:31:21.342Z,4.73
2022-11-14T03:33:49.171Z,4.66
2022-11-14T03:36:18.950Z,4.62
2022-11-14T03:38:49.082Z,4.71
2022-11-14T03:41:19.024Z,4.65
2022-11-14T03:43:48.912Z,4.77
2022-11-14T03:46:18.646Z,4.73
2022-11-14T03:48:48.991Z,4.72
2022-11-14T03:51:18.476Z,4.63
2022-11-14T03:53:48.267Z,4.65
2022-11-14T03:56:18.042Z,4.60
2022-11-14T03:58:48.133Z,4.59
2022-11-14T04:01:18.227Z,4.66
2022-11-14T04:03:48.014Z,4.68
2022-11-14T04:06:17.783Z,4.64
2022-11-14T04:08:47.657Z,4.51
2022-11-14T04:11:18.026Z,4.44
2022-11-14T04:13:47.245Z,4.58
2022-11-14T04:16:17.053Z,4.61
2022-11-14T04:18:46.963Z,4.61
2022-11-14T04:21:16.733Z,4.57
2022-11-14T04:23:46.797Z,4.58
2022-11-14T04:26:16.622Z,4.44
2022-11-14T04:28:46.537Z,4.46
2022-11-14T04:31:16.322Z,4.56
2022-11-14T04:33:46.087Z,4.42
2022-11-14T04:36:15.924Z,4.46
2022-11-14T04:38:45.813Z,4.39
2022-11-14T04:41:15.622Z,4.28
2022-11-14T04:43:50.513Z,4.31
2022-11-14T04:46:21.035Z,4.23
2022-11-14T04:48:50.794Z,4.25
2022-11-14T04:51:20.797Z,4.20
2022-11-14T04:53:50.533Z,4.14
2022-11-14T04:56:23.433Z,4.17
2022-11-14T04:58:53.344Z,4.16
2022-11-14T05:01:22.241Z,4.19
2022-11-14T05:03:50.156Z,4.23
2022-11-14T05:06:18.546Z,4.15
2022-11-14T05:08:48.577Z,4.31
2022-11-14T05:11:24.201Z,4.25
2022-11-14T05:13:58.118Z,4.19
2022-11-14T05:16:28.352Z,4.19
2022-11-14T05:18:58.407Z,4.22
2022-11-14T05:21:28.478Z,4.23
2022-11-14T05:23:58.614Z,4.25
2022-11-14T05:26:28.675Z,4.28
2022-11-14T05:28:58.812Z,4.25
2022-11-14T05:31:28.874Z,4.25
2022-11-14T05:33:58.949Z,4.36
2022-11-14T05:36:29.036Z,4.31
2022-11-14T05:38:59.286Z,4.25
2022-11-14T05:41:29.357Z,4.32
2022-11-14T05:43:59.414Z,4.35
2022-11-14T05:46:32.854Z,4.39
2022-11-14T05:49:03.008Z,4.24
2022-11-14T05:51:34.729Z,4.25
2022-11-14T05:54:05.857Z,4.27
2022-11-14T05:56:36.767Z,4.48
2022-11-14T05:59:06.955Z,4.33
2022-11-14T06:01:37.113Z,4.42
2022-11-14T06:04:10.765Z,4.46
2022-11-14T06:06:38.732Z,4.40
2022-11-14T06:09:10.188Z,4.29
2022-11-14T06:11:38.632Z,4.23
2022-11-14T06:14:10.879Z,4.18
2022-11-14T06:16:41.445Z,4.16
2022-11-14T06:19:11.570Z,4.13
2022-11-14T06:21:41.650Z,4.21
2022-11-14T06:24:11.752Z,4.14
2022-11-14T06:26:41.955Z,4.13
2022-11-14T06:29:12.114Z,4.05
2022-11-14T06:31:42.157Z,3.97
2022-11-14T06:34:13.311Z,3.90
2022-11-14T06:36:43.437Z,3.83
2022-11-14T06:39:13.511Z,3.81
2022-11-14T06:41:43.567Z,3.78
2022-11-14T06:44:15.173Z,3.84
2022-11-14T06:46:45.223Z,3.79
2022-11-14T06:49:15.305Z,3.76
2022-11-14T06:51:45.371Z,3.74
2022-11-14T06:54:15.512Z,3.73
2022-11-14T06:56:46.365Z,3.77
2022-11-14T06:59:16.513Z,3.72
2022-11-14T07:01:46.557Z,3.82
2022-11-14T07:04:16.784Z,3.91
2022-11-14T07:06:46.880Z,3.96
2022-11-14T07:09:16.939Z,3.96
2022-11-14T07:11:47.845Z,3.89
2022-11-14T07:14:17.901Z,3.93
2022-11-14T07:16:48.183Z,3.96
2022-11-14T07:19:18.157Z,4.02
2022-11-14T07:21:48.705Z,4.00
2022-11-14T07:24:18.972Z,4.11
2022-11-14T07:26:49.078Z,4.07
2022-11-14T07:29:19.186Z,4.17
2022-11-14T07:31:49.298Z,4.20
2022-11-14T07:34:19.569Z,4.24
2022-11-14T07:36:50.809Z,4.25
2022-11-14T07:39:21.315Z,4.18
2022-11-14T07:41:51.479Z,4.19
2022-11-14T07:44:21.615Z,4.27
2022-11-14T07:46:54.699Z,4.25
2022-11-14T07:49:24.779Z,4.31
2022-11-14T07:51:54.887Z,4.29
2022-11-14T07:54:24.979Z,4.24
2022-11-14T07:56:55.117Z,4.29
2022-11-14T07:59:25.198Z,4.29
2022-11-14T08:01:55.311Z,4.40
2022-11-14T08:04:26.252Z,4.38
2022-11-14T08:06:56.474Z,4.44
2022-11-14T08:09:25.233Z,4.41
2022-11-14T08:11:53.880Z,4.63
2022-11-14T08:14:22.279Z,4.65
2022-11-14T08:16:51.234Z,4.64
2022-11-14T08:19:19.229Z,4.76
2022-11-14T08:21:47.557Z,4.78
2022-11-14T08:24:15.947Z,4.89
2022-11-14T08:26:44.514Z,5.01
2022-11-14T08:29:13.108Z,5.07
2022-11-14T08:31:41.546Z,5.09
2022-11-14T08:34:13.182Z,4.99
2022-11-14T08:36:42.199Z,4.95
2022-11-14T08:39:10.529Z,4.94
2022-11-14T08:41:40.153Z,5.02
2022-11-14T08:44:07.759Z,5.05
2022-11-14T08:46:35.980Z,4.92
2022-11-14T08:49:04.490Z,4.86
2022-11-14T08:51:32.883Z,4.93
2022-11-14T08:54:01.280Z,4.96
2022-11-14T08:56:29.687Z,4.98
2022-11-14T08:58:58.113Z,5.04
2022-11-14T09:01:26.563Z,5.08
2022-11-14T09:03:59.544Z,5.05
2022-11-14T09:06:30.165Z,5.18
2022-11-14T09:08:59.954Z,5.16
2022-11-14T09:11:32.562Z,5.21
2022-11-14T09:14:01.491Z,5.53
2022-11-14T09:16:29.803Z,5.60
2022-11-14T09:19:00.239Z,5.59
2022-11-14T09:21:29.878Z,5.69
2022-11-14T09:24:01.868Z,5.86
2022-11-14T09:26:32.163Z,5.84
2022-11-14T09:29:02.349Z,5.80
2022-11-14T09:31:32.465Z,6.00
2022-11-14T09:34:02.220Z,6.05
2022-11-14T09:36:32.006Z,6.14
2022-11-14T09:39:01.895Z,6.01
2022-11-14T09:42:16.931Z,6.27
2022-11-14T09:45:12.180Z,6.46
2022-11-14T09:48:04.901Z,6.74
2022-11-14T09:50:51.310Z,6.93
2022-11-14T09:53:53.806Z,7.09
2022-11-14T09:56:27.042Z,7.40
2022-11-14T09:58:57.722Z,7.50
2022-11-14T10:01:55.317Z,7.39
2022-11-14T10:05:15.196Z,7.48
2022-11-14T10:08:32.092Z,7.66
2022-11-14T10:11:38.702Z,7.66
2022-11-14T10:14:50.409Z,8.06
2022-11-14T10:18:19.793Z,8.32
2022-11-14T10:21:12.748Z,8.20
2022-11-14T10:24:32.632Z,8.09
2022-11-14T10:27:30.237Z,8.00
2022-11-14T10:30:18.665Z,8.24
2022-11-14T10:33:10.873Z,8.28
2022-11-14T10:36:41.332Z,8.27
2022-11-14T10:39:30.560Z,8.47
2022-11-14T10:42:23.895Z,8.44
2022-11-14T10:45:27.899Z,8.43
2022-11-14T10:48:12.812Z,8.46
2022-11-14T10:51:16.544Z,8.48
2022-11-14T10:54:17.703Z,8.41
2022-11-14T10:56:51.641Z,8.40
2022-11-14T10:59:22.328Z,8.16
2022-11-14T11:01:53.999Z,8.05
2022-11-14T11:04:34.174Z,8.09
2022-11-14T11:07:10.203Z,8.07
2022-11-14T11:10:00.036Z,7.93
2022-11-14T11:12:53.423Z,7.94
2022-11-14T11:15:42.179Z,7.88
2022-11-14T11:18:36.760Z,7.93
2022-11-14T11:21:18.992Z,7.86
2022-11-14T11:23:50.501Z,7.75
2022-11-14T11:26:32.884Z,7.65
2022-11-14T11:29:10.868Z,7.82
2022-11-14T11:31:52.969Z,7.90
2022-11-14T11:34:33.076Z,8.13
2022-11-14T11:37:33.200Z,8.24
2022-11-14T11:40:16.109Z,8.04
2022-11-14T11:45:54.804Z,8.24
2022-11-14T11:48:40.478Z,8.40
2022-11-14T11:51:22.675Z,8.46
2022-11-14T11:54:22.742Z,8.38
2022-11-14T11:57:21.199Z,8.33
2022-11-14T12:00:14.526Z,8.42
2022-11-14T12:02:50.647Z,8.34
2022-11-14T12:05:41.443Z,8.45
2022-11-14T12:09:07.129Z,8.46
2022-11-14T12:11:47.597Z,8.46
2022-11-14T12:15:11.252Z,8.53
2022-11-14T12:18:47.818Z,8.51
2022-11-14T12:22:07.363Z,8.55
2022-11-14T12:25:07.471Z,8.50
2022-11-14T12:27:40.036Z,8.54
2022-11-14T12:30:24.883Z,8.73
2022-11-14T12:33:02.974Z,8.79
2022-11-14T12:35:37.477Z,8.82
2022-11-14T12:38:21.180Z,8.78
2022-11-14T12:40:59.272Z,8.79
2022-11-14T12:43:39.080Z,8.84
2022-11-14T12:46:13.941Z,8.77
2022-11-14T12:48:47.202Z,8.72
2022-11-14T12:51:37.379Z,8.72
2022-11-14T12:54:46.936Z,8.76
2022-11-14T12:58:11.722Z,8.83
2022-11-14T13:00:50.415Z,8.83
2022-11-14T13:03:38.467Z,8.84
2022-11-14T13:06:53.580Z,8.90
2022-11-14T13:10:16.503Z,9.01
2022-11-14T13:13:36.448Z,9.17
2022-11-14T13:16:23.810Z,9.10
2022-11-14T13:19:14.023Z,9.10
2022-11-14T13:22:14.721Z,9.05
2022-11-14T13:25:01.655Z,9.02
2022-11-14T13:28:06.009Z,9.02
2022-11-14T13:31:21.001Z,9.08
2022-11-14T13:34:00.723Z,9.06
2022-11-14T13:37:28.744Z,9.00
2022-11-14T13:40:23.595Z,9.04
2022-11-14T13:44:09.493Z,9.04
2022-11-14T13:47:13.278Z,9.08
2022-11-14T13:50:10.763Z,9.01
2022-11-14T13:52:49.160Z,8.97
2022-11-14T13:55:33.354Z,8.95
2022-11-14T13:58:42.602Z,8.92
2022-11-14T14:01:29.533Z,8.92
2022-11-14T14:05:00.857Z,9.04
2022-11-14T14:08:36.124Z,8.88
2022-11-14T14:11:48.450Z,8.79
2022-11-14T14:14:38.614Z,8.64
2022-11-14T14:17:54.404Z,8.52
2022-11-14T14:20:37.485Z,8.42
2022-11-14T14:23:53.044Z,8.37
2022-11-14T14:27:00.583Z,8.36
2022-11-14T14:30:23.101Z,8.41
2022-11-14T14:33:15.940Z,8.30
2022-11-14T14:35:54.495Z,8.42
2022-11-14T14:38:29.454Z,8.31
2022-11-14T14:40:58.467Z,8.26
2022-11-14T14:43:34.525Z,8.11
2022-11-14T14:46:05.340Z,8.03
2022-11-14T14:48:42.171Z,7.93
2022-11-14T14:51:15.113Z,7.79
2022-11-14T14:53:54.155Z,7.68
2022-11-14T14:59:31.232Z,7.58
2022-11-14T15:02:01.460Z,7.48
2022-11-14T15:04:41.835Z,7.43
2022-11-14T15:07:29.178Z,7.36
2022-11-14T15:10:04.309Z,7.26
2022-11-14T15:12:36.090Z,7.11
2022-11-14T15:15:15.633Z,7.02
2022-11-14T15:17:49.494Z,6.93
2022-11-14T15:20:28.844Z,6.83
2022-11-14T15:23:11.223Z,6.78
2022-11-14T15:25:43.157Z,6.70
2022-11-14T15:28:21.623Z,6.69
2022-11-14T15:31:05.972Z,6.65
2022-11-14T15:33:36.311Z,6.56
2022-11-14T15:36:18.015Z,6.43
2022-11-14T15:39:31.508Z,6.37
2022-11-14T15:42:24.755Z,6.31
2022-11-14T15:44:55.600Z,6.22
2022-11-14T15:47:40.236Z,6.19
2022-11-14T15:50:12.982Z,6.10
2022-11-14T15:52:59.226Z,6.07
2022-11-14T15:55:29.753Z,5.99
2022-11-14T15:58:21.493Z,6.02
2022-11-14T16:00:54.318Z,5.91
2022-11-14T16:03:24.841Z,5.84
2022-11-14T16:05:54.987Z,5.76
2022-11-14T16:08:25.095Z,5.83
2022-11-14T16:10:53.555Z,5.80
2022-11-14T16:13:21.983Z,5.78
2022-11-14T16:15:50.782Z,5.75
2022-11-14T16:18:18.847Z,5.71
2022-11-14T16:20:47.744Z,5.70
2022-11-14T16:23:15.755Z,5.65
2022-11-14T16:25:44.794Z,5.60
2022-11-14T16:28:12.601Z,5.50
2022-11-14T16:30:41.749Z,5.38
2022-11-14T16:33:11.981Z,5.36
2022-11-14T16:35:42.100Z,5.27
2022-11-14T16:38:14.153Z,5.20
2022-11-14T16:40:45.159Z,5.19
2022-11-14T16:43:15.772Z,5.18
2022-11-14T16:45:46.484Z,5.12
2022-11-14T16:48:16.671Z,5.16
2022-11-14T16:50:46.844Z,5.17
2022-11-14T16:53:16.940Z,5.15
2022-11-14T16:55:47.088Z,5.09
2022-11-14T16:58:17.398Z,5.04
2022-11-14T17:00:47.496Z,4.98
2022-11-14T17:03:18.656Z,4.97
2022-11-14T17:05:52.503Z,4.96
2022-11-14T17:08:22.578Z,4.93
2022-11-14T17:10:52.781Z,4.90
2022-11-14T17:13:25.578Z,4.86
2022-11-14T17:16:02.449Z,4.81
2022-11-14T17:18:37.107Z,4.74
2022-11-14T17:21:12.651Z,4.68
2022-11-14T17:23:42.743Z,4.62
2022-11-14T17:26:14.623Z,4.58
2022-11-14T17:28:46.372Z,4.52
2022-11-14T17:31:17.274Z,4.47
2022-11-14T17:33:54.691Z,4.43
2022-11-14T17:36:26.448Z,4.38
2022-11-14T17:38:58.165Z,4.32
2022-11-14T17:41:29.184Z,4.27
2022-11-14T17:44:02.636Z,4.23
2022-11-14T17:46:33.306Z,4.19
2022-11-14T17:49:04.200Z,4.14
2022-11-14T17:51:34.417Z,4.12
2022-11-14T17:54:06.634Z,4.11
2022-11-14T17:56:38.071Z,4.07
2022-11-14T17:59:12.916Z,4.04
2022-11-14T18:01:43.191Z,4.02
2022-11-14T18:04:13.540Z,3.97
2022-11-14T18:06:43.824Z,3.93
2022-11-14T18:09:14.709Z,3.93
2022-11-14T18:11:45.009Z,3.95
2022-11-14T18:14:15.399Z,3.94
2022-11-14T18:17:11.303Z,3.98
2022-11-14T18:19:36.878Z,3.99
2022-11-14T18:22:07.041Z,3.98
2022-11-14T18:24:37.312Z,4.01
2022-11-14T18:27:07.499Z,4.01
2022-11-14T18:29:37.755Z,4.00
2022-11-14T18:32:07.832Z,3.98
2022-11-14T18:34:38.150Z,3.97
2022-11-14T18:37:08.337Z,3.98
2022-11-14T18:39:38.532Z,4.09
2022-11-14T18:42:12.403Z,4.14
2022-11-14T18:44:43.446Z,4.22
2022-11-14T18:47:13.545Z,4.23
2022-11-14T18:49:43.767Z,4.15
2022-11-14T18:52:17.401Z,4.21
2022-11-14T18:54:47.919Z,4.14
2022-11-14T18:57:17.861Z,4.08
2022-11-14T18:59:47.730Z,4.04
2022-11-14T19:02:17.539Z,4.01
2022-11-14T19:04:47.462Z,3.98
2022-11-14T19:07:17.261Z,3.93
2022-11-14T19:09:47.227Z,3.90
2022-11-14T19:12:18.861Z,3.86
2022-11-14T19:14:47.449Z,3.83
2022-11-14T19:17:20.786Z,3.82
2022-11-14T19:19:53.827Z,3.86
2022-11-14T19:22:23.516Z,3.82
2022-11-14T19:24:51.364Z,3.80
2022-11-14T19:27:22.106Z,3.78
2022-11-14T19:29:52.225Z,3.80
2022-11-14T19:32:22.028Z,3.84
2022-11-14T19:34:52.100Z,3.85
2022-11-14T19:37:22.127Z,3.83
2022-11-14T19:39:55.693Z,3.86
2022-11-14T19:42:23.587Z,3.95
2022-11-14T19:44:51.636Z,3.97
2022-11-14T19:47:20.473Z,3.92
2022-11-14T19:49:50.001Z,3.94
2022-11-14T19:52:19.970Z,3.94
2022-11-14T19:54:49.308Z,3.95
2022-11-14T19:57:16.745Z,3.94
2022-11-14T19:59:45.120Z,3.94
2022-11-14T20:02:15.266Z,4.10
2022-11-14T20:04:46.907Z,4.17
2022-11-14T20:07:17.115Z,4.17
2022-11-14T20:09:47.177Z,4.16
2022-11-14T20:12:19.663Z,4.13
2022-11-14T20:14:47.419Z,4.13
2022-11-14T20:17:17.360Z,4.12
2022-11-14T20:19:47.079Z,4.11
2022-11-14T20:22:18.729Z,4.04
2022-11-14T20:24:48.374Z,4.01
2022-11-14T20:27:18.221Z,3.97
2022-11-14T20:29:48.113Z,3.92
2022-11-14T20:32:17.957Z,3.91
2022-11-14T20:34:47.814Z,3.91
2022-11-14T20:37:17.706Z,3.88
2022-11-14T20:39:47.648Z,3.85
2022-11-14T20:42:18.128Z,3.87
2022-11-14T20:44:47.742Z,3.81
2022-11-14T20:47:17.523Z,3.74
2022-11-14T20:49:46.425Z,3.66
2022-11-14T20:52:16.317Z,3.61
2022-11-14T20:54:44.597Z,3.52
2022-11-14T20:57:13.276Z,3.47
2022-11-14T20:59:41.578Z,3.44
2022-11-14T21:02:13.069Z,3.40
2022-11-14T21:04:42.000Z,3.41
2022-11-14T21:07:12.337Z,3.41
2022-11-14T21:09:42.305Z,3.40
2022-11-14T21:12:19.277Z,3.43
2022-11-14T21:14:47.694Z,3.43
2022-11-14T21:17:14.898Z,3.43
2022-11-14T21:19:44.969Z,3.39
2022-11-14T21:22:15.350Z,3.38
2022-11-14T21:24:45.267Z,3.42
2022-11-14T21:27:15.290Z,3.43
2022-11-14T21:29:45.406Z,3.39
2022-11-14T21:32:15.538Z,3.35
2022-11-14T21:34:45.703Z,3.35
2022-11-14T21:37:15.855Z,3.32
2022-11-14T21:39:48.280Z,3.31
2022-11-14T21:42:18.873Z,3.30
2022-11-14T21:44:48.172Z,3.25
2022-11-14T21:47:18.304Z,3.24
2022-11-14T21:49:48.438Z,3.23
2022-11-14T21:52:18.569Z,3.24
2022-11-14T21:54:48.679Z,3.19
2022-11-14T21:57:19.925Z,3.19
2022-11-14T21:59:49.033Z,3.12
2022-11-14T22:02:37.972Z,3.11
2022-11-14T22:05:08.567Z,3.08
2022-11-14T22:07:42.203Z,3.09
2022-11-14T22:10:11.591Z,3.06
2022-11-14T22:12:41.645Z,3.01
2022-11-14T22:15:11.899Z,2.99
2022-11-14T22:17:43.076Z,3.00
2022-11-14T22:20:12.602Z,2.98
2022-11-14T22:22:42.717Z,2.99
2022-11-14T22:25:12.968Z,2.93
2022-11-14T22:27:43.141Z,2.87
2022-11-14T22:30:14.128Z,2.84
2022-11-14T22:32:41.815Z,2.85
2022-11-14T22:35:10.165Z,2.83
2022-11-14T22:37:38.616Z,2.82
2022-11-14T22:40:08.718Z,2.81
2022-11-14T22:42:38.809Z,2.81
2022-11-14T22:45:08.656Z,2.88
2022-11-14T22:47:35.831Z,2.92
2022-11-14T22:50:08.103Z,2.91
2022-11-14T22:52:38.279Z,2.86
2022-11-14T22:55:12.432Z,2.83
2022-11-14T22:57:45.444Z,2.77
2022-11-14T23:00:17.542Z,2.75
2022-11-14T23:02:45.193Z,2.76
2022-11-14T23:05:13.726Z,2.76
2022-11-14T23:07:42.089Z,2.75
2022-11-14T23:10:11.179Z,2.73
2022-11-14T23:12:39.012Z,2.74
2022-11-14T23:15:07.948Z,2.78
2022-11-14T23:17:35.909Z,2.81
2022-11-14T23:20:05.082Z,2.82
2022-11-14T23:22:32.725Z,2.82
2022-11-14T23:25:01.090Z,2.84
2022-11-14T23:27:29.468Z,2.86
2022-11-14T23:29:57.909Z,2.81
2022-11-14T23:32:30.357Z,2.76
2022-11-14T23:35:00.448Z,2.71
2022-11-14T23:37:30.533Z,2.67
2022-11-14T23:40:00.804Z,2.63
2022-11-14T23:42:30.911Z,2.62
2022-11-14T23:45:01.020Z,2.61
2022-11-14T23:47:31.173Z,2.57
2022-11-14T23:50:01.291Z,2.54
2022-11-14T23:52:31.557Z,2.49
2022-11-14T23:55:03.188Z,2.46
2022-11-14T23:57:33.341Z,2.45
